sensor_id;sensor_type;location;lat;lon;timestamp;pressure;altitude;pressure_sealevel;temperature;humidity
81608;BME280;71022;48.122;11.576;2023-09-08T00:00:20;95900.97;;;18.50;67.13
81608;BME280;71022;48.122;11.576;2023-09-08T00:02:48;95891.41;;;18.44;67.55
81608;BME280;71022;48.122;11.576;2023-09-08T00:05:15;95891.81;;;18.39;67.78
81608;BME280;71022;48.122;11.576;2023-09-08T00:07:42;95885.44;;;18.42;67.46
81608;BME280;71022;48.122;11.576;2023-09-08T00:10:10;95894.59;;;18.39;67.54
81608;BME280;71022;48.122;11.576;2023-09-08T00:12:38;95887.84;;;18.40;67.49
81608;BME280;71022;48.122;11.576;2023-09-08T00:15:06;95899.38;;;18.45;67.05
81608;BME280;71022;48.122;11.576;2023-09-08T00:17:34;95891.03;;;18.56;66.69
81608;BME280;71022;48.122;11.576;2023-09-08T00:20:01;95889.84;;;18.53;66.74
81608;BME280;71022;48.122;11.576;2023-09-08T00:22:28;95886.69;;;18.51;66.54
81608;BME280;71022;48.122;11.576;2023-09-08T00:24:56;95884.28;;;18.50;66.42
81608;BME280;71022;48.122;11.576;2023-09-08T00:27:23;95882.69;;;18.52;66.41
81608;BME280;71022;48.122;11.576;2023-09-08T00:29:50;95890.63;;;18.61;65.87
81608;BME280;71022;48.122;11.576;2023-09-08T00:32:17;95884.28;;;18.57;66.22
81608;BME280;71022;48.122;11.576;2023-09-08T00:34:44;95880.31;;;18.51;66.24
81608;BME280;71022;48.122;11.576;2023-09-08T00:37:12;95884.25;;;18.36;66.59
81608;BME280;71022;48.122;11.576;2023-09-08T00:39:39;95882.63;;;18.13;67.47
81608;BME280;71022;48.122;11.576;2023-09-08T00:42:06;95876.63;;;17.80;68.30
81608;BME280;71022;48.122;11.576;2023-09-08T00:44:36;95876.59;;;17.62;69.18
81608;BME280;71022;48.122;11.576;2023-09-08T00:47:04;95870.53;;;17.46;70.11
81608;BME280;71022;48.122;11.576;2023-09-08T00:49:31;95872.13;;;17.50;70.24
81608;BME280;71022;48.122;11.576;2023-09-08T00:51:59;95877.78;;;17.68;69.31
81608;BME280;71022;48.122;11.576;2023-09-08T00:54:28;95877.00;;;17.78;68.92
81608;BME280;71022;48.122;11.576;2023-09-08T00:56:56;95881.00;;;17.84;69.00
81608;BME280;71022;48.122;11.576;2023-09-08T00:59:27;95881.06;;;18.09;67.92
81608;BME280;71022;48.122;11.576;2023-09-08T01:01:54;95883.44;;;18.17;67.52
81608;BME280;71022;48.122;11.576;2023-09-08T01:04:22;95877.50;;;18.15;67.48
81608;BME280;71022;48.122;11.576;2023-09-08T01:06:50;95878.66;;;18.04;67.79
81608;BME280;71022;48.122;11.576;2023-09-08T01:09:19;95876.25;;;17.92;68.58
81608;BME280;71022;48.122;11.576;2023-09-08T01:11:46;95875.84;;;17.86;68.43
81608;BME280;71022;48.122;11.576;2023-09-08T01:14:18;95881.81;;;17.88;68.36
81608;BME280;71022;48.122;11.576;2023-09-08T01:16:46;95875.47;;;18.05;67.34
81608;BME280;71022;48.122;11.576;2023-09-08T01:19:14;95881.81;;;17.99;67.63
81608;BME280;71022;48.122;11.576;2023-09-08T01:22:27;95881.06;;;18.19;66.58
81608;BME280;71022;48.122;11.576;2023-09-08T01:25:12;95885.03;;;18.47;65.40
81608;BME280;71022;48.122;11.576;2023-09-08T01:27:46;95880.66;;;18.17;65.59
81608;BME280;71022;48.122;11.576;2023-09-08T01:30:15;95877.47;;;17.94;67.00
81608;BME280;71022;48.122;11.576;2023-09-08T01:32:43;95874.22;;;17.67;68.17
81608;BME280;71022;48.122;11.576;2023-09-08T01:35:11;95874.59;;;17.59;68.17
81608;BME280;71022;48.122;11.576;2023-09-08T01:37:40;95871.44;;;17.64;67.98
81608;BME280;71022;48.122;11.576;2023-09-08T01:40:09;95868.28;;;17.76;67.41
81608;BME280;71022;48.122;11.576;2023-09-08T01:42:38;95873.03;;;17.72;67.35
81608;BME280;71022;48.122;11.576;2023-09-08T01:45:07;95877.81;;;17.79;67.36
81608;BME280;71022;48.122;11.576;2023-09-08T01:47:35;95883.34;;;17.75;67.08
81608;BME280;71022;48.122;11.576;2023-09-08T01:50:02;95869.81;;;17.63;67.45
81608;BME280;71022;48.122;11.576;2023-09-08T01:52:30;95877.00;;;17.71;67.20
81608;BME280;71022;48.122;11.576;2023-09-08T01:54:57;95868.34;;;17.97;66.28
81608;BME280;71022;48.122;11.576;2023-09-08T01:57:24;95871.47;;;17.92;66.12
81608;BME280;71022;48.122;11.576;2023-09-08T01:59:51;95866.34;;;18.08;65.70
81608;BME280;71022;48.122;11.576;2023-09-08T02:02:19;95866.75;;;18.10;65.56
81608;BME280;71022;48.122;11.576;2023-09-08T02:04:46;95862.00;;;18.32;64.40
81608;BME280;71022;48.122;11.576;2023-09-08T02:07:14;95859.59;;;18.16;64.60
81608;BME280;71022;48.122;11.576;2023-09-08T02:09:41;95858.00;;;17.94;65.78
81608;BME280;71022;48.122;11.576;2023-09-08T02:12:09;95860.75;;;17.77;66.34
81608;BME280;71022;48.122;11.576;2023-09-08T02:14:36;95856.34;;;17.61;66.58
81608;BME280;71022;48.122;11.576;2023-09-08T02:17:04;95856.31;;;17.58;66.71
81608;BME280;71022;48.122;11.576;2023-09-08T02:19:33;95856.66;;;17.49;67.11
81608;BME280;71022;48.122;11.576;2023-09-08T02:22:00;95860.22;;;17.43;66.93
81608;BME280;71022;48.122;11.576;2023-09-08T02:24:29;95859.38;;;17.39;67.42
81608;BME280;71022;48.122;11.576;2023-09-08T02:26:56;95859.41;;;17.42;67.27
81608;BME280;71022;48.122;11.576;2023-09-08T02:29:24;95864.97;;;17.46;66.55
81608;BME280;71022;48.122;11.576;2023-09-08T02:31:51;95868.94;;;17.38;66.99
81608;BME280;71022;48.122;11.576;2023-09-08T02:34:18;95867.78;;;17.53;66.36
81608;BME280;71022;48.122;11.576;2023-09-08T02:36:45;95866.56;;;17.50;66.38
81608;BME280;71022;48.122;11.576;2023-09-08T02:39:16;95863.41;;;17.52;66.70
81608;BME280;71022;48.122;11.576;2023-09-08T02:41:43;95863.38;;;17.45;66.83
81608;BME280;71022;48.122;11.576;2023-09-08T02:44:10;95861.81;;;17.44;66.75
81608;BME280;71022;48.122;11.576;2023-09-08T02:46:38;95860.31;;;17.75;65.56
81608;BME280;71022;48.122;11.576;2023-09-08T02:49:05;95855.56;;;17.64;65.76
81608;BME280;71022;48.122;11.576;2023-09-08T02:51:32;95857.78;;;17.31;67.22
81608;BME280;71022;48.122;11.576;2023-09-08T02:54:00;95853.81;;;17.32;67.19
81608;BME280;71022;48.122;11.576;2023-09-08T02:56:27;95858.50;;;17.21;67.37
81608;BME280;71022;48.122;11.576;2023-09-08T02:58:54;95858.09;;;17.15;67.71
81608;BME280;71022;48.122;11.576;2023-09-08T03:01:21;95858.59;;;17.35;66.78
81608;BME280;71022;48.122;11.576;2023-09-08T03:03:49;95861.72;;;17.30;66.89
81608;BME280;71022;48.122;11.576;2023-09-08T03:06:19;95860.56;;;17.34;66.17
81608;BME280;71022;48.122;11.576;2023-09-08T03:08:48;95858.44;;;17.06;67.04
81608;BME280;71022;48.122;11.576;2023-09-08T03:11:16;95858.84;;;17.08;67.46
81608;BME280;71022;48.122;11.576;2023-09-08T03:13:43;95861.56;;;16.94;67.99
81608;BME280;71022;48.122;11.576;2023-09-08T03:16:10;95849.69;;;16.97;67.99
81608;BME280;71022;48.122;11.576;2023-09-08T03:18:38;95860.84;;;17.11;67.57
81608;BME280;71022;48.122;11.576;2023-09-08T03:21:06;95854.97;;;17.20;67.10
81608;BME280;71022;48.122;11.576;2023-09-08T03:23:38;95858.94;;;17.23;66.97
81608;BME280;71022;48.122;11.576;2023-09-08T03:26:06;95860.13;;;17.22;66.97
81608;BME280;71022;48.122;11.576;2023-09-08T03:28:34;95853.75;;;17.21;66.80
81608;BME280;71022;48.122;11.576;2023-09-08T03:31:03;95853.72;;;17.10;67.37
81608;BME280;71022;48.122;11.576;2023-09-08T03:33:32;95852.97;;;17.21;66.76
81608;BME280;71022;48.122;11.576;2023-09-08T03:36:01;95854.53;;;17.18;67.31
81608;BME280;71022;48.122;11.576;2023-09-08T03:38:29;95856.19;;;17.30;66.47
81608;BME280;71022;48.122;11.576;2023-09-08T03:40:56;95865.59;;;17.04;66.82
81608;BME280;71022;48.122;11.576;2023-09-08T03:43:25;95857.56;;;16.88;67.43
81608;BME280;71022;48.122;11.576;2023-09-08T03:45:52;95859.78;;;16.65;68.36
81608;BME280;71022;48.122;11.576;2023-09-08T03:48:19;95862.78;;;16.46;68.85
81608;BME280;71022;48.122;11.576;2023-09-08T03:50:47;95853.13;;;16.26;69.58
81608;BME280;71022;48.122;11.576;2023-09-08T03:53:14;95859.22;;;16.42;69.78
81608;BME280;71022;48.122;11.576;2023-09-08T03:55:41;95861.53;;;16.40;69.36
81608;BME280;71022;48.122;11.576;2023-09-08T03:58:08;95859.59;;;16.44;69.13
81608;BME280;71022;48.122;11.576;2023-09-08T04:00:36;95855.66;;;16.45;69.20
81608;BME280;71022;48.122;11.576;2023-09-08T04:03:04;95854.94;;;16.51;69.09
81608;BME280;71022;48.122;11.576;2023-09-08T04:05:31;95868.28;;;16.39;68.48
81608;BME280;71022;48.122;11.576;2023-09-08T04:07:58;95856.16;;;16.07;69.46
81608;BME280;71022;48.122;11.576;2023-09-08T04:10:26;95860.66;;;15.81;70.40
81608;BME280;71022;48.122;11.576;2023-09-08T04:12:53;95866.81;;;15.64;71.12
81608;BME280;71022;48.122;11.576;2023-09-08T04:15:20;95869.81;;;15.52;71.73
81608;BME280;71022;48.122;11.576;2023-09-08T04:17:48;95863.50;;;15.52;72.28
81608;BME280;71022;48.122;11.576;2023-09-08T04:20:16;95867.28;;;15.40;72.33
81608;BME280;71022;48.122;11.576;2023-09-08T04:22:43;95862.50;;;15.37;72.90
81608;BME280;71022;48.122;11.576;2023-09-08T04:25:11;95864.63;;;15.47;72.58
81608;BME280;71022;48.122;11.576;2023-09-08T04:27:38;95865.63;;;15.32;73.15
81608;BME280;71022;48.122;11.576;2023-09-08T04:30:08;95864.28;;;15.52;72.36
81608;BME280;71022;48.122;11.576;2023-09-08T04:32:37;95865.69;;;15.39;72.83
81608;BME280;71022;48.122;11.576;2023-09-08T04:35:05;95861.50;;;15.19;73.53
81608;BME280;71022;48.122;11.576;2023-09-08T04:37:34;95860.31;;;15.20;74.18
81608;BME280;71022;48.122;11.576;2023-09-08T04:40:02;95863.63;;;14.99;74.98
81608;BME280;71022;48.122;11.576;2023-09-08T04:42:30;95864.09;;;14.78;76.16
81608;BME280;71022;48.122;11.576;2023-09-08T04:44:59;95872.44;;;14.82;76.34
81608;BME280;71022;48.122;11.576;2023-09-08T04:47:28;95869.78;;;14.89;76.15
81608;BME280;71022;48.122;11.576;2023-09-08T04:49:56;95871.75;;;14.88;75.78
81608;BME280;71022;48.122;11.576;2023-09-08T04:52:25;95872.38;;;14.75;77.08
81608;BME280;71022;48.122;11.576;2023-09-08T04:54:52;95875.88;;;14.72;77.29
81608;BME280;71022;48.122;11.576;2023-09-08T04:57:19;95871.22;;;14.79;76.62
81608;BME280;71022;48.122;11.576;2023-09-08T04:59:53;95875.47;;;15.00;75.65
81608;BME280;71022;48.122;11.576;2023-09-08T05:02:21;95870.59;;;14.89;76.14
81608;BME280;71022;48.122;11.576;2023-09-08T05:04:48;95861.16;;;14.94;75.81
81608;BME280;71022;48.122;11.576;2023-09-08T05:07:16;95873.13;;;15.02;75.94
81608;BME280;71022;48.122;11.576;2023-09-08T05:09:45;95876.19;;;15.23;75.38
81608;BME280;71022;48.122;11.576;2023-09-08T05:12:12;95875.72;;;15.21;75.06
81608;BME280;71022;48.122;11.576;2023-09-08T05:14:39;95880.47;;;15.20;75.12
81608;BME280;71022;48.122;11.576;2023-09-08T05:17:08;95879.66;;;15.16;75.28
81608;BME280;71022;48.122;11.576;2023-09-08T05:19:35;95887.00;;;15.35;75.16
81608;BME280;71022;48.122;11.576;2023-09-08T05:22:04;95879.88;;;15.34;75.54
81608;BME280;71022;48.122;11.576;2023-09-08T05:24:32;95886.31;;;15.45;75.65
81608;BME280;71022;48.122;11.576;2023-09-08T05:27:00;95892.59;;;15.42;75.86
81608;BME280;71022;48.122;11.576;2023-09-08T05:29:27;95891.84;;;15.45;76.21
81608;BME280;71022;48.122;11.576;2023-09-08T05:31:54;95896.13;;;15.39;76.59
81608;BME280;71022;48.122;11.576;2023-09-08T05:34:22;95890.00;;;15.23;77.44
81608;BME280;71022;48.122;11.576;2023-09-08T05:36:49;95893.09;;;15.18;77.50
81608;BME280;71022;48.122;11.576;2023-09-08T05:39:16;95890.84;;;15.27;77.22
81608;BME280;71022;48.122;11.576;2023-09-08T05:41:46;95898.84;;;15.35;77.08
81608;BME280;71022;48.122;11.576;2023-09-08T05:44:15;95897.31;;;15.38;77.01
81608;BME280;71022;48.122;11.576;2023-09-08T05:46:42;95899.13;;;15.27;77.74
81608;BME280;71022;48.122;11.576;2023-09-08T05:49:10;95897.63;;;15.33;77.87
81608;BME280;71022;48.122;11.576;2023-09-08T05:51:37;95903.25;;;15.40;77.93
81608;BME280;71022;48.122;11.576;2023-09-08T05:54:05;95901.44;;;15.51;77.64
81608;BME280;71022;48.122;11.576;2023-09-08T05:56:33;95905.97;;;15.66;76.56
81608;BME280;71022;48.122;11.576;2023-09-08T05:59:00;95911.25;;;15.78;76.06
81608;BME280;71022;48.122;11.576;2023-09-08T06:01:29;95914.47;;;15.84;75.58
81608;BME280;71022;48.122;11.576;2023-09-08T06:03:58;95910.84;;;15.76;75.56
81608;BME280;71022;48.122;11.576;2023-09-08T06:06:28;95910.00;;;15.72;76.31
81608;BME280;71022;48.122;11.576;2023-09-08T06:08:56;95917.69;;;15.86;75.38
81608;BME280;71022;48.122;11.576;2023-09-08T06:11:23;95917.78;;;15.96;75.06
81608;BME280;71022;48.122;11.576;2023-09-08T06:13:51;95916.31;;;16.06;74.78
81608;BME280;71022;48.122;11.576;2023-09-08T06:16:19;95913.63;;;16.17;74.84
81608;BME280;71022;48.122;11.576;2023-09-08T06:18:47;95916.47;;;16.24;74.66
81608;BME280;71022;48.122;11.576;2023-09-08T06:21:17;95919.75;;;16.40;74.06
81608;BME280;71022;48.122;11.576;2023-09-08T06:23:44;95916.00;;;16.58;73.44
81608;BME280;71022;48.122;11.576;2023-09-08T06:26:13;95911.03;;;16.85;72.12
81608;BME280;71022;48.122;11.576;2023-09-08T06:28:40;95917.81;;;16.91;72.23
81608;BME280;71022;48.122;11.576;2023-09-08T06:31:10;95913.09;;;16.95;72.34
81608;BME280;71022;48.122;11.576;2023-09-08T06:33:40;95911.63;;;17.15;71.73
81608;BME280;71022;48.122;11.576;2023-09-08T06:36:07;95913.22;;;17.17;71.59
81608;BME280;71022;48.122;11.576;2023-09-08T06:38:34;95904.56;;;17.29;71.53
81608;BME280;71022;48.122;11.576;2023-09-08T06:41:10;95901.81;;;17.29;71.41
81608;BME280;71022;48.122;11.576;2023-09-08T06:43:38;95909.38;;;17.39;71.22
81608;BME280;71022;48.122;11.576;2023-09-08T06:46:12;95915.78;;;17.50;70.46
81608;BME280;71022;48.122;11.576;2023-09-08T06:48:40;95923.75;;;17.55;70.86
81608;BME280;71022;48.122;11.576;2023-09-08T06:51:07;95916.69;;;17.68;70.34
81608;BME280;71022;48.122;11.576;2023-09-08T06:53:37;95917.50;;;17.86;69.96
81608;BME280;71022;48.122;11.576;2023-09-08T06:56:06;95925.56;;;18.27;68.73
81608;BME280;71022;48.122;11.576;2023-09-08T06:58:33;95922.41;;;18.88;67.07
81608;BME280;71022;48.122;11.576;2023-09-08T07:01:02;95920.69;;;19.65;64.46
81608;BME280;71022;48.122;11.576;2023-09-08T07:03:30;95917.25;;;20.16;62.69
81608;BME280;71022;48.122;11.576;2023-09-08T07:06:06;95928.44;;;20.71;60.64
81608;BME280;71022;48.122;11.576;2023-09-08T07:08:34;95922.78;;;20.81;59.80
81608;BME280;71022;48.122;11.576;2023-09-08T07:11:01;95927.69;;;20.67;60.50
81608;BME280;71022;48.122;11.576;2023-09-08T07:13:29;95924.84;;;20.74;60.32
81608;BME280;71022;48.122;11.576;2023-09-08T07:15:57;95926.44;;;20.75;60.71
81608;BME280;71022;48.122;11.576;2023-09-08T07:18:25;95931.22;;;21.22;59.46
81608;BME280;71022;48.122;11.576;2023-09-08T07:20:53;95914.94;;;21.85;57.41
81608;BME280;71022;48.122;11.576;2023-09-08T07:23:21;95920.06;;;22.50;55.28
81608;BME280;71022;48.122;11.576;2023-09-08T07:25:49;95921.47;;;22.89;53.75
81608;BME280;71022;48.122;11.576;2023-09-08T07:28:20;95912.88;;;23.23;53.32
81608;BME280;71022;48.122;11.576;2023-09-08T07:30:50;95916.41;;;23.69;51.30
81608;BME280;71022;48.122;11.576;2023-09-08T07:33:18;95920.38;;;23.92;50.72
81608;BME280;71022;48.122;11.576;2023-09-08T07:35:48;95912.88;;;24.05;50.78
81608;BME280;71022;48.122;11.576;2023-09-08T07:38:16;95916.06;;;24.07;50.35
81608;BME280;71022;48.122;11.576;2023-09-08T07:40:43;95913.16;;;24.30;49.87
81608;BME280;71022;48.122;11.576;2023-09-08T07:43:11;95913.72;;;24.41;49.26
81608;BME280;71022;48.122;11.576;2023-09-08T07:45:38;95921.78;;;24.39;49.67
81608;BME280;71022;48.122;11.576;2023-09-08T07:48:07;95927.78;;;24.57;49.15
81608;BME280;71022;48.122;11.576;2023-09-08T07:50:35;95919.97;;;24.49;50.08
81608;BME280;71022;48.122;11.576;2023-09-08T07:53:02;95926.06;;;24.79;48.80
81608;BME280;71022;48.122;11.576;2023-09-08T07:55:29;95923.81;;;24.91;48.36
81608;BME280;71022;48.122;11.576;2023-09-08T07:57:57;95927.69;;;24.97;48.08
81608;BME280;71022;48.122;11.576;2023-09-08T08:00:25;95939.00;;;25.25;48.31
81608;BME280;71022;48.122;11.576;2023-09-08T08:02:54;95936.06;;;25.45;47.04
81608;BME280;71022;48.122;11.576;2023-09-08T08:05:22;95933.78;;;25.40;47.60
81608;BME280;71022;48.122;11.576;2023-09-08T08:07:50;95940.66;;;25.55;47.93
81608;BME280;71022;48.122;11.576;2023-09-08T08:10:18;95935.34;;;25.73;47.27
81608;BME280;71022;48.122;11.576;2023-09-08T08:12:46;95932.44;;;25.90;46.81
81608;BME280;71022;48.122;11.576;2023-09-08T08:15:13;95928.88;;;26.02;46.32
81608;BME280;71022;48.122;11.576;2023-09-08T08:17:42;95936.81;;;25.78;46.51
81608;BME280;71022;48.122;11.576;2023-09-08T08:20:11;95932.75;;;25.79;46.33
81608;BME280;71022;48.122;11.576;2023-09-08T08:22:45;95926.34;;;26.07;46.49
81608;BME280;71022;48.122;11.576;2023-09-08T08:25:13;95927.53;;;25.94;46.99
81608;BME280;71022;48.122;11.576;2023-09-08T08:27:41;95932.03;;;25.46;48.08
81608;BME280;71022;48.122;11.576;2023-09-08T08:30:08;95923.28;;;24.96;49.20
81608;BME280;71022;48.122;11.576;2023-09-08T08:32:38;95924.22;;;25.21;48.19
81608;BME280;71022;48.122;11.576;2023-09-08T08:35:06;95930.28;;;25.52;48.01
81608;BME280;71022;48.122;11.576;2023-09-08T08:37:34;95921.34;;;25.70;47.27
81608;BME280;71022;48.122;11.576;2023-09-08T08:40:01;95924.50;;;26.01;46.25
81608;BME280;71022;48.122;11.576;2023-09-08T08:42:33;95920.72;;;26.07;46.61
81608;BME280;71022;48.122;11.576;2023-09-08T08:45:01;95926.22;;;26.11;46.83
81608;BME280;71022;48.122;11.576;2023-09-08T08:47:28;95920.34;;;26.47;45.39
81608;BME280;71022;48.122;11.576;2023-09-08T08:49:57;95920.13;;;26.54;45.44
81608;BME280;71022;48.122;11.576;2023-09-08T08:52:29;95922.97;;;26.91;44.33
81608;BME280;71022;48.122;11.576;2023-09-08T08:54:56;95914.72;;;26.97;43.65
81608;BME280;71022;48.122;11.576;2023-09-08T08:57:24;95916.88;;;26.55;45.12
81608;BME280;71022;48.122;11.576;2023-09-08T08:59:56;95913.28;;;26.13;46.63
81608;BME280;71022;48.122;11.576;2023-09-08T09:02:25;95918.81;;;26.17;46.05
81608;BME280;71022;48.122;11.576;2023-09-08T09:04:53;95916.53;;;26.12;46.40
81608;BME280;71022;48.122;11.576;2023-09-08T09:07:21;95913.22;;;26.29;45.99
81608;BME280;71022;48.122;11.576;2023-09-08T09:09:49;95913.50;;;26.60;44.82
81608;BME280;71022;48.122;11.576;2023-09-08T09:12:16;95905.03;;;26.73;45.23
81608;BME280;71022;48.122;11.576;2023-09-08T09:14:45;95913.72;;;26.78;45.64
81608;BME280;71022;48.122;11.576;2023-09-08T09:17:15;95908.31;;;26.97;45.13
81608;BME280;71022;48.122;11.576;2023-09-08T09:19:42;95903.41;;;27.22;44.14
81608;BME280;71022;48.122;11.576;2023-09-08T09:22:09;95910.25;;;27.34;43.67
81608;BME280;71022;48.122;11.576;2023-09-08T09:24:39;95905.34;;;27.13;43.67
81608;BME280;71022;48.122;11.576;2023-09-08T09:27:12;95906.84;;;27.39;43.59
81608;BME280;71022;48.122;11.576;2023-09-08T09:29:50;95900.44;;;27.38;43.59
81608;BME280;71022;48.122;11.576;2023-09-08T09:32:23;95901.97;;;27.65;42.82
81608;BME280;71022;48.122;11.576;2023-09-08T09:34:52;95907.72;;;27.61;43.27
81608;BME280;71022;48.122;11.576;2023-09-08T09:37:21;95902.88;;;27.15;44.92
81608;BME280;71022;48.122;11.576;2023-09-08T09:39:54;95900.78;;;27.40;43.86
81608;BME280;71022;48.122;11.576;2023-09-08T09:42:21;95900.13;;;27.71;43.45
81608;BME280;71022;48.122;11.576;2023-09-08T09:44:51;95889.34;;;27.78;43.63
81608;BME280;71022;48.122;11.576;2023-09-08T09:47:21;95894.94;;;27.35;44.77
81608;BME280;71022;48.122;11.576;2023-09-08T09:50:01;95885.41;;;26.94;45.74
81608;BME280;71022;48.122;11.576;2023-09-08T09:53:25;95886.66;;;26.68;46.00
81608;BME280;71022;48.122;11.576;2023-09-08T09:56:54;95882.50;;;26.60;45.65
81608;BME280;71022;48.122;11.576;2023-09-08T10:00:09;95888.34;;;26.66;45.44
81608;BME280;71022;48.122;11.576;2023-09-08T10:08:44;95878.19;;;26.68;45.84
81608;BME280;71022;48.122;11.576;2023-09-08T10:16:35;95871.88;;;27.02;44.22
81608;BME280;71022;48.122;11.576;2023-09-08T10:33:05;95862.06;;;25.77;45.58
81608;BME280;71022;48.122;11.576;2023-09-08T10:36:53;95871.03;;;25.72;45.62
81608;BME280;71022;48.122;11.576;2023-09-08T10:41:26;95869.88;;;25.85;46.29
81608;BME280;71022;48.122;11.576;2023-09-08T10:44:19;95872.34;;;25.83;46.77
81608;BME280;71022;48.122;11.576;2023-09-08T10:51:19;95858.59;;;25.85;46.48
81608;BME280;71022;48.122;11.576;2023-09-08T10:54:05;95870.75;;;25.82;46.91
81608;BME280;71022;48.122;11.576;2023-09-08T10:57:21;95856.59;;;25.99;46.23
81608;BME280;71022;48.122;11.576;2023-09-08T11:01:23;95858.59;;;25.85;46.95
81608;BME280;71022;48.122;11.576;2023-09-08T11:16:36;95861.56;;;25.95;48.71
81608;BME280;71022;48.122;11.576;2023-09-08T11:23:37;95863.38;;;26.14;46.47
81608;BME280;71022;48.122;11.576;2023-09-08T11:31:11;95859.69;;;26.17;47.67
81608;BME280;71022;48.122;11.576;2023-09-08T11:35:10;95863.09;;;26.50;46.70
81608;BME280;71022;48.122;11.576;2023-09-08T11:38:03;95855.88;;;26.61;46.42
81608;BME280;71022;48.122;11.576;2023-09-08T11:41:07;95853.84;;;26.74;47.15
81608;BME280;71022;48.122;11.576;2023-09-08T11:52:22;95850.13;;;26.77;45.11
81608;BME280;71022;48.122;11.576;2023-09-08T11:56:28;95848.53;;;26.76;47.19
81608;BME280;71022;48.122;11.576;2023-09-08T12:00:00;95845.19;;;26.81;47.44
81608;BME280;71022;48.122;11.576;2023-09-08T12:06:24;95843.56;;;27.06;47.02
81608;BME280;71022;48.122;11.576;2023-09-08T12:09:24;95854.84;;;27.06;46.10
81608;BME280;71022;48.122;11.576;2023-09-08T12:12:46;95854.88;;;26.80;47.89
81608;BME280;71022;48.122;11.576;2023-09-08T12:15:46;95850.25;;;26.86;47.03
81608;BME280;71022;48.122;11.576;2023-09-08T12:19:04;95854.06;;;26.92;46.00
81608;BME280;71022;48.122;11.576;2023-09-08T12:22:12;95839.63;;;26.78;46.00
81608;BME280;71022;48.122;11.576;2023-09-08T12:25:27;95844.06;;;26.66;45.89
81608;BME280;71022;48.122;11.576;2023-09-08T12:28:57;95830.63;;;26.70;45.53
81608;BME280;71022;48.122;11.576;2023-09-08T12:31:52;95846.53;;;26.89;45.65
81608;BME280;71022;48.122;11.576;2023-09-08T12:34:47;95837.47;;;26.94;45.44
81608;BME280;71022;48.122;11.576;2023-09-08T12:41:42;95842.88;;;27.02;46.29
81608;BME280;71022;48.122;11.576;2023-09-08T12:44:36;95831.13;;;27.16;45.70
81608;BME280;71022;48.122;11.576;2023-09-08T12:48:08;95833.84;;;27.41;45.32
81608;BME280;71022;48.122;11.576;2023-09-08T12:51:31;95812.72;;;27.24;45.00
81608;BME280;71022;48.122;11.576;2023-09-08T12:53:58;95823.13;;;27.14;45.94
81608;BME280;71022;48.122;11.576;2023-09-08T12:56:26;95830.28;;;27.28;45.60
81608;BME280;71022;48.122;11.576;2023-09-08T12:58:53;95830.19;;;27.19;45.42
81608;BME280;71022;48.122;11.576;2023-09-08T13:01:21;95827.19;;;27.13;45.17
81608;BME280;71022;48.122;11.576;2023-09-08T13:03:48;95826.88;;;26.99;46.36
81608;BME280;71022;48.122;11.576;2023-09-08T13:06:16;95829.78;;;27.08;45.89
81608;BME280;71022;48.122;11.576;2023-09-08T13:08:43;95835.66;;;27.01;46.09
81608;BME280;71022;48.122;11.576;2023-09-08T13:11:10;95826.88;;;26.99;45.97
81608;BME280;71022;48.122;11.576;2023-09-08T13:13:38;95831.03;;;27.07;46.25
81608;BME280;71022;48.122;11.576;2023-09-08T13:16:05;95821.53;;;27.13;46.98
81608;BME280;71022;48.122;11.576;2023-09-08T13:18:33;95820.81;;;27.22;46.03
81608;BME280;71022;48.122;11.576;2023-09-08T13:21:04;95810.81;;;27.21;46.19
81608;BME280;71022;48.122;11.576;2023-09-08T13:23:31;95820.91;;;27.31;46.03
81608;BME280;71022;48.122;11.576;2023-09-08T13:25:59;95820.88;;;27.43;46.01
81608;BME280;71022;48.122;11.576;2023-09-08T13:28:26;95821.03;;;27.62;46.03
81608;BME280;71022;48.122;11.576;2023-09-08T13:30:53;95819.00;;;27.62;45.47
81608;BME280;71022;48.122;11.576;2023-09-08T13:33:20;95823.31;;;27.54;45.63
81608;BME280;71022;48.122;11.576;2023-09-08T13:35:48;95814.00;;;27.44;44.57
81608;BME280;71022;48.122;11.576;2023-09-08T13:38:15;95816.56;;;27.39;44.74
81608;BME280;71022;48.122;11.576;2023-09-08T13:40:42;95804.81;;;27.53;44.16
81608;BME280;71022;48.122;11.576;2023-09-08T13:43:10;95810.47;;;27.53;44.77
81608;BME280;71022;48.122;11.576;2023-09-08T13:45:38;95801.47;;;27.33;44.90
81608;BME280;71022;48.122;11.576;2023-09-08T13:48:05;95808.00;;;27.21;44.58
81608;BME280;71022;48.122;11.576;2023-09-08T13:50:33;95799.66;;;27.39;43.93
81608;BME280;71022;48.122;11.576;2023-09-08T13:53:03;95795.84;;;27.33;44.31
81608;BME280;71022;48.122;11.576;2023-09-08T13:55:31;95787.97;;;27.28;44.35
81608;BME280;71022;48.122;11.576;2023-09-08T13:58:05;95793.25;;;27.38;44.46
81608;BME280;71022;48.122;11.576;2023-09-08T14:00:37;95790.00;;;27.27;44.98
81608;BME280;71022;48.122;11.576;2023-09-08T14:03:05;95789.84;;;27.43;44.90
81608;BME280;71022;48.122;11.576;2023-09-08T14:05:39;95787.75;;;27.57;45.12
81608;BME280;71022;48.122;11.576;2023-09-08T14:08:12;95787.22;;;27.49;44.93
81608;BME280;71022;48.122;11.576;2023-09-08T14:10:53;95786.97;;;27.56;44.17
81608;BME280;71022;48.122;11.576;2023-09-08T14:13:23;95791.50;;;27.54;44.77
81608;BME280;71022;48.122;11.576;2023-09-08T14:15:54;95789.91;;;27.53;44.79
81608;BME280;71022;48.122;11.576;2023-09-08T14:18:21;95792.44;;;27.38;44.49
81608;BME280;71022;48.122;11.576;2023-09-08T14:20:48;95778.06;;;27.23;45.05
81608;BME280;71022;48.122;11.576;2023-09-08T14:23:15;95777.22;;;27.14;45.58
81608;BME280;71022;48.122;11.576;2023-09-08T14:25:43;95778.41;;;27.25;45.40
81608;BME280;71022;48.122;11.576;2023-09-08T14:28:10;95778.28;;;27.29;45.28